Time;durP1;ratioP1;P1;durP2;ratioP2;P2;SDS_P1;SDS_P2;PMS_P1;PMS_P2;Temp;Humidity;BMP_temperature;BMP_pressure;BME280_temperature;BME280_humidity;BME280_pressure;Samples;Min_cycle;Max_cycle;Signal;HPM_P1;HPM_P2
2023/01/26 00:02:01;;;;;;;17.88;6.53;;;2.80;99.90;;;;;;10186993;28;20085;-64
2023/01/26 00:06:52;;;;;;;14.43;6.43;;;2.60;99.90;;;;;;10186472;28;20405;-65
2023/01/26 00:11:42;;;;;;;15.40;6.55;;;2.70;99.90;;;;;;10182286;28;20066;-64
2023/01/26 00:16:33;;;;;;;15.90;7.60;;;2.50;99.90;;;;;;10182712;28;20028;-65
2023/01/26 00:21:24;;;;;;;13.98;5.70;;;2.40;99.90;;;;;;10182692;28;20024;-65
2023/01/26 00:26:17;;;;;;;17.83;8.00;;;2.40;99.90;;;;;;10183333;28;20095;-64
2023/01/26 00:31:14;;;;;;;14.40;7.50;;;2.40;99.90;;;;;;10181308;28;20040;-65
2023/01/26 00:36:05;;;;;;;12.57;6.78;;;2.30;99.90;;;;;;10171510;28;20054;-64
2023/01/26 00:40:56;;;;;;;13.48;5.72;;;2.50;99.90;;;;;;10169082;28;20387;-64
2023/01/26 00:45:47;;;;;;;12.65;7.65;;;2.40;99.90;;;;;;10172135;28;20055;-64
2023/01/26 00:50:37;;;;;;;14.50;5.82;;;2.50;99.90;;;;;;10175197;28;20036;-63
2023/01/26 00:55:31;;;;;;;14.75;6.07;;;2.50;99.90;;;;;;10191903;28;20024;-64
2023/01/26 01:00:21;;;;;;;13.90;6.03;;;2.50;99.90;;;;;;10181077;28;20060;-64
2023/01/26 01:05:12;;;;;;;14.55;6.22;;;2.40;99.90;;;;;;10181008;28;20458;-63
2023/01/26 01:10:03;;;;;;;14.52;6.00;;;2.50;99.90;;;;;;10180181;28;20089;-62
2023/01/26 01:14:53;;;;;;;15.82;7.15;;;2.40;99.90;;;;;;10180303;28;20036;-64
2023/01/26 01:19:44;;;;;;;14.90;6.35;;;2.40;99.90;;;;;;10179028;28;20028;-62
2023/01/26 01:24:35;;;;;;;11.82;6.13;;;2.40;99.90;;;;;;10179783;28;20016;-63
2023/01/26 01:29:26;;;;;;;10.52;5.68;;;2.40;99.90;;;;;;10168950;28;20284;-63
2023/01/26 01:34:17;;;;;;;13.15;6.47;;;2.30;99.90;;;;;;10177527;28;20691;-63
2023/01/26 01:39:07;;;;;;;12.10;5.43;;;2.40;99.90;;;;;;10177150;28;20528;-63
2023/01/26 01:44:11;;;;;;;12.93;6.43;;;2.40;99.90;;;;;;10177000;28;20032;-63
2023/01/26 01:49:12;;;;;;;16.42;7.30;;;2.30;99.90;;;;;;10179052;28;20040;-63
2023/01/26 01:54:08;;;;;;;12.65;5.75;;;2.30;99.90;;;;;;10178446;28;20051;-64
2023/01/26 01:59:00;;;;;;;13.20;6.93;;;2.20;99.90;;;;;;10179180;28;20086;-64
2023/01/26 02:03:54;;;;;;;15.75;6.40;;;2.30;99.90;;;;;;10178409;28;20399;-64
2023/01/26 02:08:47;;;;;;;9.98;5.32;;;2.30;99.90;;;;;;10177383;28;20364;-64
2023/01/26 02:13:39;;;;;;;13.25;5.43;;;2.30;99.90;;;;;;10179941;28;20099;-64
2023/01/26 02:18:30;;;;;;;11.05;6.32;;;2.30;99.90;;;;;;10179157;28;20426;-64
2023/01/26 02:23:29;;;;;;;14.95;6.30;;;2.20;99.90;;;;;;10178563;28;20016;-64
2023/01/26 02:28:24;;;;;;;13.07;6.13;;;2.20;99.90;;;;;;10178201;28;20040;-64
2023/01/26 02:33:25;;;;;;;14.15;6.18;;;2.20;99.90;;;;;;10178515;28;20024;-64
2023/01/26 02:38:18;;;;;;;13.48;6.75;;;2.20;99.90;;;;;;10177684;28;20464;-64
2023/01/26 02:43:09;;;;;;;15.00;5.85;;;2.20;99.90;;;;;;10178681;28;20155;-64
2023/01/26 02:48:03;;;;;;;16.17;6.78;;;2.10;99.90;;;;;;10177618;28;20055;-63
2023/01/26 02:52:54;;;;;;;16.63;7.40;;;2.10;99.90;;;;;;10191445;28;20394;-63
2023/01/26 02:57:45;;;;;;;12.65;6.75;;;2.10;99.90;;;;;;10186626;28;20032;-63
2023/01/26 03:02:36;;;;;;;14.90;6.68;;;2.10;99.90;;;;;;10185477;28;20020;-63
2023/01/26 03:07:27;;;;;;;15.80;6.55;;;2.00;99.90;;;;;;10185154;28;20135;-63
2023/01/26 03:12:18;;;;;;;13.35;5.75;;;2.10;99.90;;;;;;10183544;28;20378;-63
2023/01/26 03:17:08;;;;;;;17.48;8.23;;;2.20;99.90;;;;;;10185426;28;20042;-63
2023/01/26 03:27:27;;;;;;;14.07;6.95;;;2.00;99.90;;;;;;10185843;28;20101;-64
2023/01/26 03:32:18;;;;;;;20.00;8.40;;;2.10;99.90;;;;;;10184468;28;20024;-64
2023/01/26 03:37:08;;;;;;;18.95;7.30;;;2.20;99.90;;;;;;10184907;28;20036;-64
2023/01/26 03:57:28;;;;;;;17.90;7.72;;;2.10;99.90;;;;;;10183531;28;20066;-64
2023/01/26 04:12:37;;;;;;;23.17;8.18;;;2.00;99.90;;;;;;10164454;28;20428;-64
2023/01/26 04:22:44;;;;;;;13.95;6.47;;;2.10;99.90;;;;;;10170028;28;20039;-63
2023/01/26 04:27:35;;;;;;;12.50;5.35;;;2.10;99.90;;;;;;10169243;28;20036;-63
2023/01/26 04:32:26;;;;;;;15.35;5.32;;;2.20;99.90;;;;;;10182250;28;20031;-64
2023/01/26 04:37:16;;;;;;;18.77;7.50;;;2.10;99.90;;;;;;10181709;28;20020;-63
2023/01/26 04:42:07;;;;;;;14.52;7.45;;;2.10;99.90;;;;;;10181382;28;20496;-64
2023/01/26 04:46:58;;;;;;;17.92;7.22;;;2.10;99.90;;;;;;10181156;28;20130;-63
2023/01/26 04:51:48;;;;;;;12.77;5.63;;;2.10;99.90;;;;;;10180177;28;20394;-64
2023/01/26 04:56:39;;;;;;;15.73;6.78;;;2.20;99.90;;;;;;10181556;28;20175;-63
2023/01/26 05:01:30;;;;;;;14.02;5.97;;;2.10;99.90;;;;;;10181105;28;20028;-64
2023/01/26 05:06:21;;;;;;;15.25;6.38;;;2.10;99.90;;;;;;10180313;28;20028;-62
2023/01/26 05:11:11;;;;;;;13.63;5.85;;;2.20;99.90;;;;;;10180087;28;20032;-64
2023/01/26 05:16:04;;;;;;;20.17;7.45;;;2.20;99.90;;;;;;10180030;28;20330;-64
2023/01/26 05:20:55;;;;;;;12.82;5.53;;;2.10;99.90;;;;;;10181092;28;20028;-64
2023/01/26 05:25:46;;;;;;;10.60;5.10;;;2.10;99.90;;;;;;10180720;28;20032;-64
2023/01/26 05:30:36;;;;;;;11.13;4.78;;;2.20;99.90;;;;;;10179532;28;20032;-65
2023/01/26 05:35:27;;;;;;;12.60;5.78;;;2.10;99.90;;;;;;10179608;28;20016;-64
2023/01/26 05:40:18;;;;;;;11.80;5.47;;;2.20;99.90;;;;;;10179313;28;20024;-63
2023/01/26 05:45:09;;;;;;;14.20;6.25;;;2.10;99.90;;;;;;10178228;28;20051;-63
2023/01/26 05:49:59;;;;;;;11.75;6.05;;;2.10;99.90;;;;;;10182275;28;20131;-64
2023/01/26 05:54:50;;;;;;;11.05;5.00;;;2.30;99.90;;;;;;10191843;28;20202;-64
2023/01/26 05:59:41;;;;;;;12.02;5.65;;;2.40;99.90;;;;;;10177958;28;20031;-65
2023/01/26 06:04:31;;;;;;;8.48;4.75;;;2.30;99.90;;;;;;10168787;28;20034;-64
2023/01/26 06:09:23;;;;;;;9.32;4.72;;;2.40;99.90;;;;;;10158732;28;20303;-64
2023/01/26 06:14:13;;;;;;;12.13;6.28;;;2.40;99.90;;;;;;10167396;28;20030;-63
2023/01/26 06:19:05;;;;;;;11.95;4.65;;;2.50;99.90;;;;;;10169803;28;20534;-65
2023/01/26 06:23:56;;;;;;;13.68;5.28;;;2.40;99.90;;;;;;10173879;28;20066;-64
2023/01/26 06:28:46;;;;;;;12.35;4.75;;;2.50;99.90;;;;;;10183103;28;20096;-64
2023/01/26 06:33:37;;;;;;;16.23;6.45;;;2.40;99.90;;;;;;10185554;28;20046;-64
2023/01/26 06:38:29;;;;;;;15.25;6.72;;;2.50;99.90;;;;;;10171040;28;20111;-62
2023/01/26 06:43:19;;;;;;;14.15;6.50;;;2.40;99.90;;;;;;10180531;28;20257;-64
2023/01/26 06:48:10;;;;;;;15.07;5.43;;;2.40;99.90;;;;;;10183605;28;20700;-63
2023/01/26 06:53:10;;;;;;;13.27;6.43;;;2.40;99.90;;;;;;10198011;28;20116;-63
2023/01/26 06:58:00;;;;;;;14.63;7.03;;;2.60;99.90;;;;;;10185667;28;20035;-64
2023/01/26 07:02:51;;;;;;;15.13;6.70;;;2.60;99.90;;;;;;10185082;28;20398;-63
2023/01/26 07:07:42;;;;;;;17.25;8.20;;;2.60;99.90;;;;;;10185935;28;20078;-63
2023/01/26 07:12:41;;;;;;;11.70;6.03;;;2.60;99.90;;;;;;10185345;28;20023;-64
2023/01/26 07:17:31;;;;;;;14.25;6.50;;;2.50;99.90;;;;;;10184955;28;20029;-63
2023/01/26 07:22:22;;;;;;;12.25;6.07;;;2.50;99.90;;;;;;10185107;28;20494;-64
2023/01/26 07:27:12;;;;;;;14.73;6.38;;;2.50;99.90;;;;;;10185108;28;20072;-64
2023/01/26 07:32:03;;;;;;;9.93;4.10;;;2.40;99.90;;;;;;10184036;28;20162;-64
2023/01/26 07:36:54;;;;;;;12.15;5.25;;;2.40;99.90;;;;;;10179072;28;20032;-62
2023/01/26 07:41:44;;;;;;;11.55;5.13;;;2.50;99.90;;;;;;10196659;28;20028;-63
2023/01/26 07:46:35;;;;;;;8.48;4.20;;;2.50;99.90;;;;;;10195535;28;20113;-63
2023/01/26 07:51:26;;;;;;;9.65;5.32;;;2.50;99.90;;;;;;10196877;28;20028;-62
2023/01/26 07:56:20;;;;;;;13.40;5.10;;;2.60;99.90;;;;;;10191455;28;20035;-62
2023/01/26 08:01:12;;;;;;;11.90;4.35;;;2.60;99.90;;;;;;10186572;28;20016;-62
2023/01/26 08:06:03;;;;;;;9.63;3.92;;;2.70;99.90;;;;;;10194130;28;20024;-63
2023/01/26 08:10:59;;;;;;;12.68;4.43;;;2.60;99.90;;;;;;10191583;28;20485;-63
2023/01/26 08:15:50;;;;;;;9.55;4.25;;;2.50;99.90;;;;;;10214527;28;20334;-64
2023/01/26 08:20:40;;;;;;;11.30;4.57;;;2.60;99.90;;;;;;10205837;28;20110;-64
2023/01/26 08:25:32;;;;;;;11.88;4.60;;;2.70;99.90;;;;;;10200455;28;20016;-61
2023/01/26 08:30:23;;;;;;;10.95;4.57;;;2.60;99.90;;;;;;10190076;28;20042;-64
2023/01/26 08:35:13;;;;;;;6.75;3.47;;;2.50;99.90;;;;;;10190326;28;20066;-62
2023/01/26 08:40:05;;;;;;;8.88;3.83;;;2.70;99.90;;;;;;10189218;28;21155;-64
2023/01/26 08:44:55;;;;;;;12.73;5.30;;;2.70;99.90;;;;;;10197979;28;20029;-65
2023/01/26 08:49:46;;;;;;;10.77;3.97;;;2.80;99.90;;;;;;10195295;28;20114;-65
2023/01/26 08:54:37;;;;;;;8.82;4.32;;;2.70;99.90;;;;;;10191306;28;20044;-64
2023/01/26 08:59:27;;;;;;;11.85;5.18;;;2.60;99.90;;;;;;10201729;28;20490;-63
2023/01/26 09:04:18;;;;;;;13.98;6.05;;;2.60;99.90;;;;;;10189827;28;20028;-62
2023/01/26 09:09:12;;;;;;;8.77;4.38;;;2.60;99.90;;;;;;10188206;28;20044;-64
2023/01/26 09:14:02;;;;;;;10.20;4.28;;;2.60;99.90;;;;;;10196921;28;20020;-73
2023/01/26 09:18:53;;;;;;;6.70;3.75;;;2.60;99.90;;;;;;10208656;28;20039;-66
2023/01/26 09:23:44;;;;;;;9.25;3.75;;;2.70;99.90;;;;;;10201361;28;20019;-62
2023/01/26 09:28:35;;;;;;;8.23;3.60;;;2.70;99.90;;;;;;10195448;28;20031;-65
2023/01/26 09:33:25;;;;;;;8.13;3.60;;;2.80;99.90;;;;;;10186327;28;20169;-66
2023/01/26 09:38:16;;;;;;;9.35;4.57;;;2.70;99.90;;;;;;10197332;28;20036;-69
2023/01/26 09:43:19;;;;;;;7.50;4.40;;;2.60;99.90;;;;;;10190754;28;20027;-64
2023/01/26 09:48:20;;;;;;;13.30;4.72;;;2.60;99.90;;;;;;10201318;28;20054;-66
2023/01/26 09:53:33;;;;;;;14.43;4.93;;;2.70;99.90;;;;;;10191387;28;20184;-65
2023/01/26 09:58:36;;;;;;;13.50;5.20;;;2.70;99.90;;;;;;10200382;28;20500;-65
2023/01/26 10:03:49;;;;;;;12.65;4.97;;;2.80;99.90;;;;;;10188483;28;20031;-63
2023/01/26 10:08:42;;;;;;;9.48;4.53;;;2.90;99.90;;;;;;10187934;28;20065;-64
2023/01/26 10:13:33;;;;;;;7.68;3.65;;;3.00;99.90;;;;;;10182752;28;20051;-63
2023/01/26 10:18:31;;;;;;;11.25;4.00;;;2.80;99.90;;;;;;10184012;28;20095;-63
2023/01/26 10:23:27;;;;;;;11.20;4.55;;;2.80;99.90;;;;;;10174764;28;20059;-63
2023/01/26 10:28:19;;;;;;;18.00;6.07;;;2.90;99.90;;;;;;10182713;28;20044;-62
2023/01/26 10:33:13;;;;;;;8.13;4.53;;;2.90;99.90;;;;;;10200066;28;20085;-63
2023/01/26 10:38:33;;;;;;;10.55;4.85;;;2.80;99.90;;;;;;10191773;28;20039;-64
2023/01/26 10:43:23;;;;;;;8.10;3.70;;;2.90;99.90;;;;;;10192188;28;20024;-63
2023/01/26 10:48:25;;;;;;;7.68;3.63;;;2.80;99.90;;;;;;10184147;28;20048;-65
2023/01/26 10:53:28;;;;;;;8.80;4.43;;;2.70;99.90;;;;;;10187488;28;20436;-64
2023/01/26 10:58:38;;;;;;;5.65;3.17;;;2.80;99.90;;;;;;10184835;28;20020;-63
2023/01/26 11:03:28;;;;;;;12.32;5.72;;;2.70;99.90;;;;;;10187042;28;20038;-63
2023/01/26 11:08:37;;;;;;;10.90;5.70;;;2.80;99.90;;;;;;10192954;28;20377;-63
2023/01/26 11:13:28;;;;;;;9.00;3.88;;;2.90;99.90;;;;;;10208722;28;20051;-63
2023/01/26 11:18:42;;;;;;;13.35;4.93;;;2.80;99.90;;;;;;10198669;28;20386;-64
2023/01/26 11:24:03;;;;;;;14.10;5.43;;;2.90;99.90;;;;;;10204445;28;20020;-62
2023/01/26 11:29:20;;;;;;;12.88;5.60;;;3.00;99.90;;;;;;10192790;28;20505;-63
2023/01/26 11:34:33;;;;;;;14.25;5.78;;;2.90;99.90;;;;;;10197536;28;20043;-69
2023/01/26 11:39:53;;;;;;;13.27;4.60;;;2.80;99.90;;;;;;10203891;28;20019;-65
2023/01/26 11:45:09;;;;;;;8.60;5.00;;;2.70;99.90;;;;;;10193571;28;20417;-65
2023/01/26 11:50:25;;;;;;;9.57;5.22;;;2.70;99.90;;;;;;10185602;28;20068;-60
2023/01/26 11:55:25;;;;;;;9.90;5.17;;;2.60;99.90;;;;;;10178627;28;20016;-60
2023/01/26 12:00:29;;;;;;;9.68;4.82;;;2.60;99.90;;;;;;10193215;28;20016;-60
2023/01/26 12:05:25;;;;;;;16.33;5.80;;;2.70;99.90;;;;;;10172068;28;20028;-60
2023/01/26 12:10:22;;;;;;;12.27;4.22;;;2.80;99.90;;;;;;10174563;28;20025;-61
2023/01/26 12:15:27;;;;;;;12.23;5.68;;;2.70;99.90;;;;;;10176046;28;20035;-62
2023/01/26 12:20:21;;;;;;;11.77;5.82;;;2.60;99.90;;;;;;10180857;28;20020;-62
2023/01/26 12:25:35;;;;;;;13.45;4.80;;;2.80;99.90;;;;;;10185348;28;20106;-62
2023/01/26 12:30:35;;;;;;;15.73;5.55;;;2.80;99.90;;;;;;10184540;28;20024;-62
2023/01/26 12:35:56;;;;;;;10.18;4.75;;;2.90;99.90;;;;;;10189103;28;20020;-62
2023/01/26 12:40:51;;;;;;;8.85;4.53;;;2.70;99.90;;;;;;10176465;28;20024;-61
2023/01/26 12:45:47;;;;;;;10.57;5.40;;;2.80;99.90;;;;;;10176224;28;20081;-61
2023/01/26 12:50:44;;;;;;;13.88;6.30;;;3.00;99.90;;;;;;10187652;28;20039;-62
2023/01/26 12:56:12;;;;;;;12.30;5.20;;;3.00;99.90;;;;;;10164771;28;20028;-63
2023/01/26 13:01:04;;;;;;;10.68;4.95;;;3.00;99.90;;;;;;10169458;28;20073;-61
2023/01/26 13:06:20;;;;;;;15.02;5.60;;;2.70;99.90;;;;;;10190856;28;20028;-62
2023/01/26 13:11:39;;;;;;;9.80;4.10;;;2.50;99.90;;;;;;10179487;28;20035;-63
2023/01/26 13:16:32;;;;;;;9.20;3.92;;;2.50;99.90;;;;;;10181247;28;20028;-64
2023/01/26 13:21:38;;;;;;;10.00;3.88;;;2.50;99.90;;;;;;10185057;28;20028;-62
2023/01/26 13:26:31;;;;;;;8.95;4.65;;;2.50;99.90;;;;;;10181757;28;20043;-61
2023/01/26 13:31:31;;;;;;;10.18;4.70;;;2.60;99.90;;;;;;10186814;28;20040;-61
2023/01/26 13:36:22;;;;;;;9.05;3.53;;;2.60;99.90;;;;;;10191622;28;20027;-62
2023/01/26 13:41:18;;;;;;;10.05;4.22;;;2.60;99.90;;;;;;10187501;28;20020;-64
2023/01/26 13:46:44;;;;;;;6.72;3.47;;;2.60;99.90;;;;;;10189801;28;20071;-63
2023/01/26 13:51:35;;;;;;;10.30;3.63;;;2.40;99.90;;;;;;10161860;28;20066;-62
2023/01/26 13:56:41;;;;;;;7.70;3.97;;;2.40;99.90;;;;;;10183738;28;20132;-62
2023/01/26 14:01:32;;;;;;;6.37;3.57;;;2.40;99.90;;;;;;10190263;28;20020;-62
2023/01/26 14:06:23;;;;;;;7.53;2.92;;;2.50;99.90;;;;;;10190521;28;20262;-63
2023/01/26 14:11:23;;;;;;;8.55;3.78;;;2.50;99.90;;;;;;10183786;28;20048;-63
2023/01/26 14:16:29;;;;;;;6.03;3.25;;;2.50;99.90;;;;;;10177332;28;20493;-63
2023/01/26 14:21:21;;;;;;;6.47;3.50;;;2.50;99.90;;;;;;10176476;28;20070;-62
2023/01/26 14:26:19;;;;;;;7.63;2.70;;;2.60;99.90;;;;;;10185824;28;20023;-62
2023/01/26 14:31:24;;;;;;;5.53;2.60;;;2.60;99.90;;;;;;10183404;28;20062;-63
2023/01/26 14:36:17;;;;;;;7.57;3.20;;;2.60;99.90;;;;;;10193040;28;20063;-62
2023/01/26 14:41:18;;;;;;;6.15;3.15;;;2.50;99.90;;;;;;10191672;28;20059;-66
2023/01/26 14:46:35;;;;;;;5.80;3.72;;;2.50;99.90;;;;;;10192498;28;20073;-63
2023/01/26 14:51:26;;;;;;;9.07;4.05;;;2.50;99.90;;;;;;10181257;28;20032;-64
2023/01/26 14:56:19;;;;;;;7.72;2.97;;;2.50;99.90;;;;;;10186740;28;20031;-66
2023/01/26 15:01:22;;;;;;;6.80;3.00;;;2.40;99.90;;;;;;10186517;28;20028;-64
2023/01/26 15:06:14;;;;;;;6.07;2.70;;;2.40;99.90;;;;;;10200505;28;20027;-62
2023/01/26 15:16:20;;;;;;;6.60;3.17;;;2.30;99.90;;;;;;10184694;28;20035;-65
2023/01/26 15:21:18;;;;;;;7.38;3.58;;;2.40;99.90;;;;;;10206823;28;20506;-66
2023/01/26 15:26:27;;;;;;;7.75;4.35;;;2.40;99.90;;;;;;10193093;28;20032;-66
2023/01/26 15:31:21;;;;;;;7.43;4.18;;;2.30;99.90;;;;;;10188946;28;20478;-64
2023/01/26 15:36:31;;;;;;;6.93;3.92;;;2.30;99.90;;;;;;10197543;28;20300;-62
2023/01/26 15:41:22;;;;;;;6.20;3.05;;;2.30;99.90;;;;;;10194301;28;20032;-62
2023/01/26 15:46:12;;;;;;;11.05;3.78;;;2.30;99.90;;;;;;10197666;28;20056;-63
2023/01/26 15:51:09;;;;;;;7.70;3.85;;;2.40;99.90;;;;;;10189864;28;20039;-65
2023/01/26 15:56:00;;;;;;;6.07;2.90;;;2.40;99.90;;;;;;10183335;28;20508;-64
2023/01/26 16:00:52;;;;;;;7.72;3.50;;;2.40;99.90;;;;;;10178931;28;20065;-65
2023/01/26 16:05:43;;;;;;;5.20;2.80;;;2.30;99.90;;;;;;10198798;28;20059;-65
2023/01/26 16:10:34;;;;;;;4.22;2.28;;;2.30;99.90;;;;;;10194943;28;20032;-66
2023/01/26 16:15:47;;;;;;;6.32;2.75;;;2.20;99.90;;;;;;10189293;28;20028;-64
2023/01/26 16:20:40;;;;;;;3.90;2.45;;;2.20;99.90;;;;;;10184537;28;20024;-63
2023/01/26 16:25:31;;;;;;;6.95;3.25;;;2.30;99.90;;;;;;10188304;28;20151;-64
2023/01/26 16:30:23;;;;;;;4.75;2.47;;;2.30;99.90;;;;;;10195249;28;20250;-64
2023/01/26 16:35:19;;;;;;;5.30;2.13;;;2.30;99.90;;;;;;10198883;28;20026;-64
2023/01/26 16:40:15;;;;;;;3.22;1.95;;;2.30;99.90;;;;;;10199800;28;20215;-69
2023/01/26 16:45:09;;;;;;;4.28;1.40;;;2.20;99.90;;;;;;10189759;28;20044;-65
2023/01/26 16:50:00;;;;;;;3.10;2.05;;;2.10;99.90;;;;;;10187770;28;20111;-66
2023/01/26 16:54:52;;;;;;;5.32;2.42;;;2.20;99.90;;;;;;10183385;28;20024;-66
2023/01/26 16:59:43;;;;;;;6.30;2.40;;;2.40;99.90;;;;;;10202225;28;20020;-65
2023/01/26 17:04:34;;;;;;;2.92;1.95;;;2.50;99.90;;;;;;10191574;28;20040;-65
2023/01/26 17:09:24;;;;;;;5.45;2.25;;;2.40;99.90;;;;;;10193126;28;20032;-63
2023/01/26 17:14:15;;;;;;;4.28;2.72;;;2.30;99.90;;;;;;10194360;28;20087;-66
2023/01/26 17:19:06;;;;;;;4.88;1.95;;;2.20;99.90;;;;;;10188008;28;20069;-66
2023/01/26 17:23:57;;;;;;;5.22;2.83;;;2.30;99.90;;;;;;10190736;28;20024;-65
2023/01/26 17:28:51;;;;;;;3.67;2.40;;;2.20;99.90;;;;;;10193103;28;20039;-66
2023/01/26 17:33:46;;;;;;;4.72;2.25;;;2.20;99.90;;;;;;10186631;28;20137;-66
2023/01/26 17:38:36;;;;;;;3.17;2.10;;;2.20;99.90;;;;;;10195358;28;20035;-67
2023/01/26 17:43:28;;;;;;;2.92;1.58;;;2.30;99.90;;;;;;10194723;28;20031;-65
2023/01/26 17:48:18;;;;;;;4.97;2.60;;;2.10;99.90;;;;;;10179027;28;20051;-64
2023/01/26 17:53:09;;;;;;;5.43;2.45;;;2.10;99.90;;;;;;10184204;28;20150;-67
2023/01/26 17:58:04;;;;;;;4.53;2.65;;;2.10;99.90;;;;;;10182806;28;20073;-69
2023/01/26 18:02:55;;;;;;;4.35;1.85;;;2.10;99.90;;;;;;10183903;28;20115;-66
2023/01/26 18:07:46;;;;;;;3.22;2.25;;;2.10;99.90;;;;;;10195656;28;20055;-66
2023/01/26 18:12:37;;;;;;;5.07;2.40;;;2.10;99.90;;;;;;10201961;28;20058;-67
2023/01/26 18:17:27;;;;;;;5.13;2.25;;;1.90;99.90;;;;;;10199469;28;20032;-65
2023/01/26 18:22:18;;;;;;;4.78;2.17;;;2.00;99.90;;;;;;10181823;28;20097;-66
2023/01/26 18:27:09;;;;;;;3.58;2.08;;;2.00;99.90;;;;;;10185567;28;20203;-65
2023/01/26 18:31:59;;;;;;;6.53;3.30;;;2.00;99.90;;;;;;10181583;28;20439;-66
2023/01/26 18:36:50;;;;;;;8.18;2.75;;;2.00;99.90;;;;;;10198395;28;20192;-65
2023/01/26 18:41:42;;;;;;;5.53;2.63;;;1.90;99.90;;;;;;10193899;28;20016;-64
2023/01/26 18:46:33;;;;;;;6.82;3.53;;;1.90;99.90;;;;;;10190894;28;20679;-63
2023/01/26 18:51:23;;;;;;;4.63;2.60;;;1.90;99.90;;;;;;10189634;28;20059;-64
2023/01/26 18:56:16;;;;;;;4.43;2.83;;;1.80;99.90;;;;;;10184309;28;20102;-66
2023/01/26 19:01:11;;;;;;;7.68;3.05;;;1.90;99.90;;;;;;10187577;28;20035;-64
2023/01/26 19:06:04;;;;;;;3.80;2.10;;;1.90;99.90;;;;;;10204937;28;20025;-64
2023/01/26 19:10:55;;;;;;;4.53;2.85;;;1.80;99.90;;;;;;10183782;28;20127;-64
2023/01/26 19:15:50;;;;;;;5.25;3.22;;;1.90;99.90;;;;;;10200898;28;20028;-65
2023/01/26 19:20:41;;;;;;;6.90;2.83;;;2.00;99.90;;;;;;10187097;28;20524;-65
2023/01/26 19:25:35;;;;;;;4.10;2.25;;;2.00;99.90;;;;;;10185806;28;20509;-64
2023/01/26 19:30:26;;;;;;;6.18;2.92;;;1.80;99.90;;;;;;10184997;28;20082;-65
2023/01/26 19:35:17;;;;;;;6.25;2.78;;;1.80;99.90;;;;;;10196657;28;20477;-64
2023/01/26 19:40:08;;;;;;;5.05;3.15;;;1.80;99.90;;;;;;10208371;28;20026;-64
2023/01/26 19:44:59;;;;;;;8.20;3.25;;;1.80;99.90;;;;;;10183086;28;20094;-64
2023/01/26 19:49:50;;;;;;;7.38;2.83;;;1.80;99.90;;;;;;10193204;28;20086;-65
2023/01/26 19:54:40;;;;;;;7.82;2.78;;;1.70;99.90;;;;;;10185576;28;20024;-64
2023/01/26 19:59:31;;;;;;;8.18;3.15;;;1.80;99.90;;;;;;10191566;28;20506;-63
2023/01/26 20:04:22;;;;;;;7.85;3.78;;;1.70;99.90;;;;;;10194508;28;20028;-65
2023/01/26 20:09:12;;;;;;;7.30;3.40;;;1.70;99.90;;;;;;10204403;28;20035;-66
2023/01/26 20:14:07;;;;;;;8.57;3.72;;;1.70;99.90;;;;;;10202001;28;20016;-64
2023/01/26 20:18:58;;;;;;;7.65;3.83;;;1.70;99.90;;;;;;10186712;28;20054;-65
2023/01/26 20:23:49;;;;;;;10.55;3.72;;;1.60;99.90;;;;;;10189406;28;20022;-66
2023/01/26 20:28:40;;;;;;;8.68;3.72;;;1.50;99.90;;;;;;10197385;28;20040;-68
2023/01/26 20:33:31;;;;;;;10.40;4.60;;;1.60;99.90;;;;;;10184585;28;20035;-66
2023/01/26 20:38:21;;;;;;;6.80;3.13;;;1.60;99.90;;;;;;10193885;28;20020;-67
2023/01/26 20:43:14;;;;;;;7.50;2.92;;;1.60;99.90;;;;;;10179128;28;20027;-67
2023/01/26 20:48:05;;;;;;;8.27;4.68;;;1.50;99.90;;;;;;10191711;28;20055;-66
2023/01/26 20:52:56;;;;;;;7.43;3.55;;;1.40;99.90;;;;;;10181420;28;20028;-68
2023/01/26 20:57:46;;;;;;;5.10;2.80;;;1.50;99.90;;;;;;10190616;28;20028;-68
2023/01/26 21:02:37;;;;;;;7.68;3.53;;;1.50;99.90;;;;;;10200659;28;20067;-67
2023/01/26 21:07:28;;;;;;;8.85;4.18;;;1.40;99.90;;;;;;10173820;28;20397;-67
2023/01/26 21:12:18;;;;;;;8.10;4.18;;;1.40;99.90;;;;;;10181065;28;20405;-67
2023/01/26 21:17:09;;;;;;;6.03;2.97;;;1.50;99.90;;;;;;10182269;28;20059;-66
2023/01/26 21:22:00;;;;;;;8.05;3.28;;;1.40;99.90;;;;;;10176193;28;20035;-68
2023/01/26 21:26:51;;;;;;;12.07;5.20;;;1.40;99.90;;;;;;10182813;28;20019;-68
2023/01/26 21:31:41;;;;;;;5.60;3.40;;;1.50;99.90;;;;;;10188991;28;20085;-67
2023/01/26 21:36:33;;;;;;;5.88;3.13;;;1.50;99.90;;;;;;10189021;28;20284;-66
2023/01/26 21:46:43;;;;;;;8.27;5.03;;;1.50;99.90;;;;;;10183209;28;20138;-66
2023/01/26 21:56:44;;;;;;;9.32;4.28;;;1.40;99.90;;;;;;10185766;28;20034;-67
2023/01/26 22:01:43;;;;;;;12.27;5.38;;;1.50;99.90;;;;;;10191723;28;20037;-67
2023/01/26 22:06:35;;;;;;;9.30;4.28;;;1.50;99.90;;;;;;10199409;27;20027;-67
2023/01/26 22:11:27;;;;;;;12.77;4.97;;;1.50;99.90;;;;;;10183468;28;20523;-67
2023/01/26 22:16:18;;;;;;;11.57;5.43;;;1.50;99.90;;;;;;10178188;28;20050;-65
2023/01/26 22:21:08;;;;;;;8.75;5.03;;;1.60;99.90;;;;;;10182267;28;20077;-69
2023/01/26 22:26:03;;;;;;;13.90;4.75;;;1.50;99.90;;;;;;10184428;28;20024;-65
2023/01/26 22:31:02;;;;;;;9.35;4.55;;;1.60;99.90;;;;;;10178408;28;20032;-65
2023/01/26 22:36:05;;;;;;;9.70;4.70;;;1.50;99.90;;;;;;10179163;28;20048;-63
2023/01/26 22:40:56;;;;;;;11.05;4.72;;;1.60;99.90;;;;;;10184334;28;20017;-63
2023/01/26 22:45:48;;;;;;;14.02;5.20;;;1.60;99.90;;;;;;10185177;28;20048;-63
2023/01/26 22:50:39;;;;;;;12.77;4.78;;;1.60;99.90;;;;;;10182226;28;20044;-64
2023/01/26 22:55:29;;;;;;;11.38;4.95;;;1.50;99.90;;;;;;10179503;28;20020;-65
2023/01/26 23:00:20;;;;;;;11.65;4.95;;;1.60;99.90;;;;;;10179783;28;20502;-65
2023/01/26 23:05:11;;;;;;;11.48;4.80;;;1.70;99.90;;;;;;10191598;28;20022;-63
2023/01/26 23:10:02;;;;;;;14.38;7.28;;;1.60;99.90;;;;;;10187936;28;20038;-65
2023/01/26 23:14:53;;;;;;;12.10;4.85;;;1.50;99.90;;;;;;10187133;28;20378;-62
2023/01/26 23:19:43;;;;;;;16.38;6.60;;;1.50;99.90;;;;;;10187028;28;20032;-62
2023/01/26 23:24:34;;;;;;;13.80;6.45;;;1.60;99.90;;;;;;10192435;28;20340;-63
2023/01/26 23:29:25;;;;;;;15.45;6.05;;;1.60;99.90;;;;;;10196786;28;20378;-61
2023/01/26 23:34:15;;;;;;;130.05;45.97;;;1.60;99.90;;;;;;10181872;28;20267;-65
2023/01/26 23:39:06;;;;;;;28.60;16.15;;;1.60;99.90;;;;;;10191226;28;20028;-62
2023/01/26 23:43:56;;;;;;;17.40;7.57;;;1.70;99.90;;;;;;10185281;28;20032;-63
2023/01/26 23:48:47;;;;;;;18.70;6.78;;;1.60;99.90;;;;;;10210680;27;20127;-63
2023/01/26 23:53:38;;;;;;;19.48;7.75;;;1.40;99.90;;;;;;10194958;28;20075;-62
2023/01/26 23:58:29;;;;;;;16.25;6.30;;;1.30;99.90;;;;;;10184170;28;20060;-61
